sensor_id;sensor_type;location;lat;lon;timestamp;pressure;altitude;pressure_sealevel;temperature;humidity
11525;BME280;5819;49.648;8.330;2022-11-11T00:01:46;101889.91;;;6.00;100.00
11525;BME280;5819;49.648;8.330;2022-11-11T00:04:32;101889.88;;;5.93;100.00
11525;BME280;5819;49.648;8.330;2022-11-11T00:07:19;101889.88;;;5.91;100.00
11525;BME280;5819;49.648;8.330;2022-11-11T00:10:06;101889.88;;;5.88;100.00
11525;BME280;5819;49.648;8.330;2022-11-11T00:12:53;101890.75;;;5.93;100.00
11525;BME280;5819;49.648;8.330;2022-11-11T00:15:41;101891.59;;;5.94;100.00
11525;BME280;5819;49.648;8.330;2022-11-11T00:18:27;101889.88;;;5.87;100.00
11525;BME280;5819;49.648;8.330;2022-11-11T00:21:32;101895.84;;;5.69;100.00
11525;BME280;5819;49.648;8.330;2022-11-11T00:24:36;101894.09;;;5.68;100.00
11525;BME280;5819;49.648;8.330;2022-11-11T00:27:40;101899.22;;;5.62;100.00
11525;BME280;5819;49.648;8.330;2022-11-11T00:30:27;101907.84;;;5.64;100.00
11525;BME280;5819;49.648;8.330;2022-11-11T00:33:14;101919.91;;;5.57;100.00
11525;BME280;5819;49.648;8.330;2022-11-11T00:36:01;101917.31;;;5.56;100.00
11525;BME280;5819;49.648;8.330;2022-11-11T00:38:47;101913.84;;;5.58;100.00
11525;BME280;5819;49.648;8.330;2022-11-11T00:41:36;101916.41;;;5.54;100.00
11525;BME280;5819;49.648;8.330;2022-11-11T00:44:23;101917.28;;;5.54;100.00
11525;BME280;5819;49.648;8.330;2022-11-11T00:47:10;101927.63;;;5.53;100.00
11525;BME280;5819;49.648;8.330;2022-11-11T00:50:18;101925.03;;;5.59;100.00
11525;BME280;5819;49.648;8.330;2022-11-11T00:53:23;101921.56;;;5.51;100.00
11525;BME280;5819;49.648;8.330;2022-11-11T00:56:11;101912.97;;;5.47;100.00
11525;BME280;5819;49.648;8.330;2022-11-11T00:58:58;101922.47;;;5.53;100.00
11525;BME280;5819;49.648;8.330;2022-11-11T01:01:45;101923.31;;;5.52;100.00
11525;BME280;5819;49.648;8.330;2022-11-11T01:04:31;101920.69;;;5.44;100.00
11525;BME280;5819;49.648;8.330;2022-11-11T01:07:19;101914.66;;;5.39;100.00
11525;BME280;5819;49.648;8.330;2022-11-11T01:10:06;101920.69;;;5.37;100.00
11525;BME280;5819;49.648;8.330;2022-11-11T01:12:53;101932.66;;;5.27;100.00
11525;BME280;5819;49.648;8.330;2022-11-11T01:15:59;101935.22;;;5.19;100.00
11525;BME280;5819;49.648;8.330;2022-11-11T01:18:46;101938.66;;;5.20;100.00
11525;BME280;5819;49.648;8.330;2022-11-11T01:21:33;101933.56;;;5.32;100.00
11525;BME280;5819;49.648;8.330;2022-11-11T01:24:21;101936.97;;;5.34;100.00
11525;BME280;5819;49.648;8.330;2022-11-11T01:27:08;101931.84;;;5.33;100.00
11525;BME280;5819;49.648;8.330;2022-11-11T01:29:54;101937.81;;;5.30;100.00
11525;BME280;5819;49.648;8.330;2022-11-11T01:32:41;101942.13;;;5.25;100.00
11525;BME280;5819;49.648;8.330;2022-11-11T01:35:27;101937.81;;;5.26;100.00
11525;BME280;5819;49.648;8.330;2022-11-11T01:38:14;101938.63;;;5.22;100.00
11525;BME280;5819;49.648;8.330;2022-11-11T01:41:03;101937.75;;;5.15;100.00
11525;BME280;5819;49.648;8.330;2022-11-11T01:44:18;101931.78;;;5.22;100.00
11525;BME280;5819;49.648;8.330;2022-11-11T01:47:06;101937.81;;;5.21;100.00
11525;BME280;5819;49.648;8.330;2022-11-11T01:49:55;101926.59;;;5.16;100.00
11525;BME280;5819;49.648;8.330;2022-11-11T01:52:42;101914.59;;;5.21;100.00
11525;BME280;5819;49.648;8.330;2022-11-11T01:55:30;101924.09;;;5.34;100.00
11525;BME280;5819;49.648;8.330;2022-11-11T01:58:20;101917.25;;;5.42;100.00
11525;BME280;5819;49.648;8.330;2022-11-11T02:01:07;101919.84;;;5.41;100.00
11525;BME280;5819;49.648;8.330;2022-11-11T02:03:54;101928.38;;;5.34;100.00
11525;BME280;5819;49.648;8.330;2022-11-11T02:07:03;101929.25;;;5.33;100.00
11525;BME280;5819;49.648;8.330;2022-11-11T02:09:51;101930.94;;;5.28;100.00
11525;BME280;5819;49.648;8.330;2022-11-11T02:12:39;101930.03;;;5.16;100.00
11525;BME280;5819;49.648;8.330;2022-11-11T02:15:45;101925.75;;;5.17;100.00
11525;BME280;5819;49.648;8.330;2022-11-11T02:18:33;101924.00;;;5.16;100.00
11525;BME280;5819;49.648;8.330;2022-11-11T02:21:24;101913.72;;;5.21;100.00
11525;BME280;5819;49.648;8.330;2022-11-11T02:24:17;101907.69;;;5.22;100.00
11525;BME280;5819;49.648;8.330;2022-11-11T02:27:07;101903.38;;;5.14;100.00
11525;BME280;5819;49.648;8.330;2022-11-11T02:29:57;101902.50;;;5.11;100.00
11525;BME280;5819;49.648;8.330;2022-11-11T02:32:46;101903.31;;;5.07;100.00
11525;BME280;5819;49.648;8.330;2022-11-11T02:35:35;101917.03;;;4.98;100.00
11525;BME280;5819;49.648;8.330;2022-11-11T02:38:22;101912.81;;;5.09;100.00
11525;BME280;5819;49.648;8.330;2022-11-11T02:41:11;101911.09;;;5.08;100.00
11525;BME280;5819;49.648;8.330;2022-11-11T02:44:15;101905.94;;;5.13;100.00
11525;BME280;5819;49.648;8.330;2022-11-11T02:47:02;101919.72;;;5.18;100.00
11525;BME280;5819;49.648;8.330;2022-11-11T02:49:49;101935.22;;;5.19;100.00
11525;BME280;5819;49.648;8.330;2022-11-11T02:52:36;101930.88;;;5.09;100.00
11525;BME280;5819;49.648;8.330;2022-11-11T02:55:22;101925.69;;;5.08;100.00
11525;BME280;5819;49.648;8.330;2022-11-11T02:58:10;101926.50;;;5.02;100.00
11525;BME280;5819;49.648;8.330;2022-11-11T03:00:56;101927.34;;;4.98;100.00
11525;BME280;5819;49.648;8.330;2022-11-11T03:03:43;101937.72;;;5.04;100.00
11525;BME280;5819;49.648;8.330;2022-11-11T03:06:29;101929.97;;;5.06;100.00
11525;BME280;5819;49.648;8.330;2022-11-11T03:09:16;101937.75;;;5.09;100.00
11525;BME280;5819;49.648;8.330;2022-11-11T03:12:02;101946.25;;;4.93;100.00
11525;BME280;5819;49.648;8.330;2022-11-11T03:14:50;101955.63;;;4.83;100.00
11525;BME280;5819;49.648;8.330;2022-11-11T03:17:37;101954.81;;;4.92;100.00
11525;BME280;5819;49.648;8.330;2022-11-11T03:20:26;101957.41;;;4.93;100.00
11525;BME280;5819;49.648;8.330;2022-11-11T03:23:30;101965.13;;;4.89;100.00
11525;BME280;5819;49.648;8.330;2022-11-11T03:26:16;101966.69;;;4.70;100.00
11525;BME280;5819;49.648;8.330;2022-11-11T03:29:04;101972.63;;;4.60;100.00
11525;BME280;5819;49.648;8.330;2022-11-11T03:31:53;101970.13;;;4.67;100.00
11525;BME280;5819;49.648;8.330;2022-11-11T03:34:39;101965.00;;;4.72;100.00
11525;BME280;5819;49.648;8.330;2022-11-11T03:37:25;101962.41;;;4.73;100.00
11525;BME280;5819;49.648;8.330;2022-11-11T03:40:30;101967.66;;;4.84;100.00
11525;BME280;5819;49.648;8.330;2022-11-11T03:43:18;101969.41;;;4.90;100.00
11525;BME280;5819;49.648;8.330;2022-11-11T03:46:05;101972.81;;;4.87;100.00
11525;BME280;5819;49.648;8.330;2022-11-11T03:48:53;101982.28;;;4.87;100.00
11525;BME280;5819;49.648;8.330;2022-11-11T03:51:39;101984.78;;;4.76;100.00
11525;BME280;5819;49.648;8.330;2022-11-11T03:54:26;101983.03;;;4.73;100.00
11525;BME280;5819;49.648;8.330;2022-11-11T03:57:12;101985.59;;;4.73;100.00
11525;BME280;5819;49.648;8.330;2022-11-11T04:00:19;101994.16;;;4.69;100.00
11525;BME280;5819;49.648;8.330;2022-11-11T04:03:08;101995.94;;;4.72;100.00
11525;BME280;5819;49.648;8.330;2022-11-11T04:06:15;102001.06;;;4.70;100.00
11525;BME280;5819;49.648;8.330;2022-11-11T04:09:19;102009.66;;;4.71;100.00
11525;BME280;5819;49.648;8.330;2022-11-11T04:12:23;102011.28;;;4.61;100.00
11525;BME280;5819;49.648;8.330;2022-11-11T04:15:11;102012.16;;;4.62;100.00
11525;BME280;5819;49.648;8.330;2022-11-11T04:18:15;102008.72;;;4.63;100.00
11525;BME280;5819;49.648;8.330;2022-11-11T04:21:02;102019.00;;;4.57;100.00
11525;BME280;5819;49.648;8.330;2022-11-11T04:24:08;102017.22;;;4.54;100.00
11525;BME280;5819;49.648;8.330;2022-11-11T04:27:14;102016.34;;;4.49;100.00
11525;BME280;5819;49.648;8.330;2022-11-11T04:30:01;102012.06;;;4.54;100.00
11525;BME280;5819;49.648;8.330;2022-11-11T04:32:46;102021.50;;;4.51;100.00
11525;BME280;5819;49.648;8.330;2022-11-11T04:35:32;102006.94;;;4.56;100.00
11525;BME280;5819;49.648;8.330;2022-11-11T04:38:19;102018.09;;;4.55;100.00
11525;BME280;5819;49.648;8.330;2022-11-11T04:41:24;102015.44;;;4.44;100.00
11525;BME280;5819;49.648;8.330;2022-11-11T04:44:30;102014.63;;;4.51;100.00
11525;BME280;5819;49.648;8.330;2022-11-11T04:47:35;102013.00;;;4.59;100.00
11525;BME280;5819;49.648;8.330;2022-11-11T04:50:22;102008.69;;;4.61;100.00
11525;BME280;5819;49.648;8.330;2022-11-11T04:53:12;102008.72;;;4.63;100.00
11525;BME280;5819;49.648;8.330;2022-11-11T04:55:59;102015.59;;;4.65;100.00
11525;BME280;5819;49.648;8.330;2022-11-11T04:59:04;102010.53;;;4.73;100.00
11525;BME280;5819;49.648;8.330;2022-11-11T05:02:03;102002.84;;;4.79;100.00
11525;BME280;5819;49.648;8.330;2022-11-11T05:05:07;102019.28;;;4.92;100.00
11525;BME280;5819;49.648;8.330;2022-11-11T05:07:54;102020.13;;;4.91;100.00
11525;BME280;5819;49.648;8.330;2022-11-11T05:10:58;102014.97;;;4.92;100.00
11525;BME280;5819;49.648;8.330;2022-11-11T05:13:45;102013.31;;;4.97;100.00
11525;BME280;5819;49.648;8.330;2022-11-11T05:16:52;102009.84;;;4.98;100.00
11525;BME280;5819;49.648;8.330;2022-11-11T05:19:56;102004.75;;;5.01;100.00
11525;BME280;5819;49.648;8.330;2022-11-11T05:22:57;102010.72;;;4.97;100.00
11525;BME280;5819;49.648;8.330;2022-11-11T05:25:43;102014.03;;;4.81;100.00
11525;BME280;5819;49.648;8.330;2022-11-11T05:28:29;102007.09;;;4.74;100.00
11525;BME280;5819;49.648;8.330;2022-11-11T05:31:15;102014.84;;;4.72;100.00
11525;BME280;5819;49.648;8.330;2022-11-11T05:34:03;102014.81;;;4.71;100.00
11525;BME280;5819;49.648;8.330;2022-11-11T05:36:50;102014.09;;;4.89;100.00
11525;BME280;5819;49.648;8.330;2022-11-11T05:39:36;102023.56;;;4.91;100.00
11525;BME280;5819;49.648;8.330;2022-11-11T05:42:23;102024.47;;;4.98;100.00
11525;BME280;5819;49.648;8.330;2022-11-11T05:45:09;102024.53;;;5.07;100.00
11525;BME280;5819;49.648;8.330;2022-11-11T05:47:59;102022.84;;;5.12;100.00
11525;BME280;5819;49.648;8.330;2022-11-11T05:50:47;102028.91;;;5.15;100.00
11525;BME280;5819;49.648;8.330;2022-11-11T05:53:33;102022.84;;;5.10;100.00
11525;BME280;5819;49.648;8.330;2022-11-11T05:56:20;102017.78;;;5.24;100.00
11525;BME280;5819;49.648;8.330;2022-11-11T05:59:07;102021.28;;;5.32;100.00
11525;BME280;5819;49.648;8.330;2022-11-11T06:01:53;102022.16;;;5.36;100.00
11525;BME280;5819;49.648;8.330;2022-11-11T06:04:40;102022.19;;;5.43;100.00
11525;BME280;5819;49.648;8.330;2022-11-11T06:07:28;102028.19;;;5.39;100.00
11525;BME280;5819;49.648;8.330;2022-11-11T06:10:15;102033.34;;;5.42;100.00
11525;BME280;5819;49.648;8.330;2022-11-11T06:13:16;102045.41;;;5.43;100.00
11525;BME280;5819;49.648;8.330;2022-11-11T06:16:04;102041.97;;;5.46;100.00
11525;BME280;5819;49.648;8.330;2022-11-11T06:18:51;102048.88;;;5.50;100.00
11525;BME280;5819;49.648;8.330;2022-11-11T06:21:37;102046.34;;;5.53;100.00
11525;BME280;5819;49.648;8.330;2022-11-11T06:24:39;102048.94;;;5.57;100.00
11525;BME280;5819;49.648;8.330;2022-11-11T06:27:25;102051.50;;;5.53;100.00
11525;BME280;5819;49.648;8.330;2022-11-11T06:30:12;102054.97;;;5.62;100.00
11525;BME280;5819;49.648;8.330;2022-11-11T06:33:18;102060.19;;;5.69;100.00
11525;BME280;5819;49.648;8.330;2022-11-11T06:36:07;102070.50;;;5.70;100.00
11525;BME280;5819;49.648;8.330;2022-11-11T06:38:54;102067.97;;;5.73;100.00
11525;BME280;5819;49.648;8.330;2022-11-11T06:41:42;102064.53;;;5.77;100.00
11525;BME280;5819;49.648;8.330;2022-11-11T06:44:28;102061.97;;;5.82;100.00
11525;BME280;5819;49.648;8.330;2022-11-11T06:47:14;102071.44;;;5.83;100.00
11525;BME280;5819;49.648;8.330;2022-11-11T06:50:01;102082.59;;;5.79;100.00
11525;BME280;5819;49.648;8.330;2022-11-11T06:52:47;102081.72;;;5.74;100.00
11525;BME280;5819;49.648;8.330;2022-11-11T06:55:34;102092.03;;;5.75;100.00
11525;BME280;5819;49.648;8.330;2022-11-11T06:58:22;102093.75;;;5.75;100.00
11525;BME280;5819;49.648;8.330;2022-11-11T07:01:09;102097.22;;;5.75;100.00
11525;BME280;5819;49.648;8.330;2022-11-11T07:03:58;102095.56;;;5.85;100.00
11525;BME280;5819;49.648;8.330;2022-11-11T07:06:45;102094.75;;;5.89;100.00
11525;BME280;5819;49.648;8.330;2022-11-11T07:09:31;102090.44;;;5.94;100.00
11525;BME280;5819;49.648;8.330;2022-11-11T07:12:18;102087.91;;;5.97;100.00
11525;BME280;5819;49.648;8.330;2022-11-11T07:15:07;102091.41;;;6.09;100.00
11525;BME280;5819;49.648;8.330;2022-11-11T07:17:53;102098.28;;;6.12;100.00
11525;BME280;5819;49.648;8.330;2022-11-11T07:20:40;102086.25;;;6.17;100.00
11525;BME280;5819;49.648;8.330;2022-11-11T07:23:26;102086.28;;;6.22;100.00
11525;BME280;5819;49.648;8.330;2022-11-11T07:26:13;102086.28;;;6.25;100.00
11525;BME280;5819;49.648;8.330;2022-11-11T07:29:00;102087.13;;;6.21;100.00
11525;BME280;5819;49.648;8.330;2022-11-11T07:31:48;102090.59;;;6.24;100.00
11525;BME280;5819;49.648;8.330;2022-11-11T07:34:35;102093.16;;;6.27;100.00
11525;BME280;5819;49.648;8.330;2022-11-11T07:37:21;102093.19;;;6.26;100.00
11525;BME280;5819;49.648;8.330;2022-11-11T07:40:09;102089.72;;;6.28;100.00
11525;BME280;5819;49.648;8.330;2022-11-11T07:42:56;102090.63;;;6.36;100.00
11525;BME280;5819;49.648;8.330;2022-11-11T07:45:42;102088.91;;;6.40;100.00
11525;BME280;5819;49.648;8.330;2022-11-11T07:48:30;102083.72;;;6.43;100.00
11525;BME280;5819;49.648;8.330;2022-11-11T07:51:16;102086.31;;;6.40;100.00
11525;BME280;5819;49.648;8.330;2022-11-11T07:54:02;102088.91;;;6.41;100.00
11525;BME280;5819;49.648;8.330;2022-11-11T07:56:50;102080.28;;;6.50;100.00
11525;BME280;5819;49.648;8.330;2022-11-11T07:59:36;102090.66;;;6.45;100.00
11525;BME280;5819;49.648;8.330;2022-11-11T08:02:22;102093.22;;;6.47;100.00
11525;BME280;5819;49.648;8.330;2022-11-11T08:05:10;102086.31;;;6.50;100.00
11525;BME280;5819;49.648;8.330;2022-11-11T08:08:01;102075.13;;;6.54;100.00
11525;BME280;5819;49.648;8.330;2022-11-11T08:10:48;102073.44;;;6.59;100.00
11525;BME280;5819;49.648;8.330;2022-11-11T08:13:34;102080.34;;;6.64;100.00
11525;BME280;5819;49.648;8.330;2022-11-11T08:16:25;102081.19;;;6.59;100.00
11525;BME280;5819;49.648;8.330;2022-11-11T08:19:12;102077.75;;;6.83;100.00
11525;BME280;5819;49.648;8.330;2022-11-11T08:22:00;102091.53;;;6.64;100.00
11525;BME280;5819;49.648;8.330;2022-11-11T08:24:46;102091.53;;;6.67;100.00
11525;BME280;5819;49.648;8.330;2022-11-11T08:27:55;102094.13;;;6.70;100.00
11525;BME280;5819;49.648;8.330;2022-11-11T08:30:42;102088.97;;;6.69;100.00
11525;BME280;5819;49.648;8.330;2022-11-11T08:33:28;102091.56;;;6.76;100.00
11525;BME280;5819;49.648;8.330;2022-11-11T08:36:19;102096.75;;;6.78;100.00
11525;BME280;5819;49.648;8.330;2022-11-11T08:39:08;102101.06;;;6.85;100.00
11525;BME280;5819;49.648;8.330;2022-11-11T08:41:55;102106.22;;;6.73;100.00
11525;BME280;5819;49.648;8.330;2022-11-11T08:44:42;102106.22;;;6.83;100.00
11525;BME280;5819;49.648;8.330;2022-11-11T08:47:28;102108.81;;;6.85;100.00
11525;BME280;5819;49.648;8.330;2022-11-11T08:50:16;102110.53;;;6.86;100.00
11525;BME280;5819;49.648;8.330;2022-11-11T08:53:02;102107.97;;;6.86;100.00
11525;BME280;5819;49.648;8.330;2022-11-11T08:55:50;102103.63;;;6.91;100.00
11525;BME280;5819;49.648;8.330;2022-11-11T08:58:37;102114.00;;;6.94;100.00
11525;BME280;5819;49.648;8.330;2022-11-11T09:01:24;102120.03;;;6.90;100.00
11525;BME280;5819;49.648;8.330;2022-11-11T09:04:10;102124.34;;;6.89;100.00
11525;BME280;5819;49.648;8.330;2022-11-11T09:07:17;102118.31;;;6.86;100.00
11525;BME280;5819;49.648;8.330;2022-11-11T09:10:04;102118.28;;;6.92;100.00
11525;BME280;5819;49.648;8.330;2022-11-11T09:12:55;102125.19;;;6.94;100.00
11525;BME280;5819;49.648;8.330;2022-11-11T09:15:42;102122.59;;;6.94;100.00
11525;BME280;5819;49.648;8.330;2022-11-11T09:18:29;102113.09;;;6.90;100.00
11525;BME280;5819;49.648;8.330;2022-11-11T09:21:16;102127.78;;;6.85;100.00
11525;BME280;5819;49.648;8.330;2022-11-11T09:24:03;102122.63;;;6.93;100.00
11525;BME280;5819;49.648;8.330;2022-11-11T09:26:49;102119.19;;;6.94;100.00
11525;BME280;5819;49.648;8.330;2022-11-11T09:29:37;102121.78;;;7.06;100.00
11525;BME280;5819;49.648;8.330;2022-11-11T09:32:23;102126.06;;;7.07;100.00
11525;BME280;5819;49.648;8.330;2022-11-11T09:35:09;102125.22;;;7.05;100.00
11525;BME280;5819;49.648;8.330;2022-11-11T09:37:57;102123.47;;;7.04;100.00
11525;BME280;5819;49.648;8.330;2022-11-11T09:40:51;102122.63;;;7.08;100.00
11525;BME280;5819;49.648;8.330;2022-11-11T09:43:47;102132.97;;;7.08;100.00
11525;BME280;5819;49.648;8.330;2022-11-11T09:46:44;102122.63;;;7.20;100.00
11525;BME280;5819;49.648;8.330;2022-11-11T09:49:50;102122.63;;;7.20;100.00
11525;BME280;5819;49.648;8.330;2022-11-11T09:52:42;102114.84;;;7.23;100.00
11525;BME280;5819;49.648;8.330;2022-11-11T09:55:35;102117.44;;;7.23;100.00
11525;BME280;5819;49.648;8.330;2022-11-11T09:58:23;102114.00;;;7.17;100.00
11525;BME280;5819;49.648;8.330;2022-11-11T10:01:13;102109.69;;;7.22;100.00
11525;BME280;5819;49.648;8.330;2022-11-11T10:04:12;102114.00;;;7.24;100.00
11525;BME280;5819;49.648;8.330;2022-11-11T10:07:06;102111.41;;;7.27;100.00
11525;BME280;5819;49.648;8.330;2022-11-11T10:09:59;102107.94;;;7.31;100.00
11525;BME280;5819;49.648;8.330;2022-11-11T10:12:52;102106.22;;;7.30;100.00
11525;BME280;5819;49.648;8.330;2022-11-11T10:15:48;102107.97;;;7.30;100.00
11525;BME280;5819;49.648;8.330;2022-11-11T10:18:52;102097.59;;;7.42;100.00
11525;BME280;5819;49.648;8.330;2022-11-11T10:21:47;102091.53;;;7.35;100.00
11525;BME280;5819;49.648;8.330;2022-11-11T10:25:05;102088.94;;;7.50;100.00
11525;BME280;5819;49.648;8.330;2022-11-11T10:27:54;102094.13;;;7.57;100.00
11525;BME280;5819;49.648;8.330;2022-11-11T10:30:41;102094.13;;;7.49;100.00
11525;BME280;5819;49.648;8.330;2022-11-11T10:33:32;102088.94;;;7.53;100.00
11525;BME280;5819;49.648;8.330;2022-11-11T10:36:25;102086.34;;;7.55;100.00
11525;BME280;5819;49.648;8.330;2022-11-11T10:39:26;102076.81;;;7.63;100.00
11525;BME280;5819;49.648;8.330;2022-11-11T10:42:19;102079.41;;;7.69;100.00
11525;BME280;5819;49.648;8.330;2022-11-11T10:45:12;102075.94;;;7.67;100.00
11525;BME280;5819;49.648;8.330;2022-11-11T10:48:02;102075.09;;;7.70;100.00
11525;BME280;5819;49.648;8.330;2022-11-11T10:50:53;102082.00;;;7.59;100.00
11525;BME280;5819;49.648;8.330;2022-11-11T10:53:48;102075.97;;;7.60;100.00
11525;BME280;5819;49.648;8.330;2022-11-11T10:56:43;102086.34;;;7.58;100.00
11525;BME280;5819;49.648;8.330;2022-11-11T10:59:36;102078.56;;;7.55;100.00
11525;BME280;5819;49.648;8.330;2022-11-11T11:02:27;102074.25;;;7.57;100.00
11525;BME280;5819;49.648;8.330;2022-11-11T11:05:19;102071.66;;;7.60;100.00
11525;BME280;5819;49.648;8.330;2022-11-11T11:08:11;102074.25;;;7.60;100.00
11525;BME280;5819;49.648;8.330;2022-11-11T11:11:03;102070.81;;;7.57;100.00
11525;BME280;5819;49.648;8.330;2022-11-11T11:13:57;102063.03;;;7.57;100.00
11525;BME280;5819;49.648;8.330;2022-11-11T11:16:48;102063.91;;;7.62;100.00
11525;BME280;5819;49.648;8.330;2022-11-11T11:19:35;102057.84;;;7.60;100.00
11525;BME280;5819;49.648;8.330;2022-11-11T11:22:46;102060.44;;;7.57;100.00
11525;BME280;5819;49.648;8.330;2022-11-11T11:25:32;102055.22;;;7.67;100.00
11525;BME280;5819;49.648;8.330;2022-11-11T11:28:19;102049.19;;;7.73;100.00
11525;BME280;5819;49.648;8.330;2022-11-11T11:31:07;102054.38;;;7.74;100.00
11525;BME280;5819;49.648;8.330;2022-11-11T11:33:55;102062.09;;;7.76;100.00
11525;BME280;5819;49.648;8.330;2022-11-11T11:36:41;102046.56;;;7.80;100.00
11525;BME280;5819;49.648;8.330;2022-11-11T11:39:32;102051.72;;;7.83;100.00
11525;BME280;5819;49.648;8.330;2022-11-11T11:42:30;102053.44;;;7.86;100.00
11525;BME280;5819;49.648;8.330;2022-11-11T11:45:22;102046.50;;;7.91;100.00
11525;BME280;5819;49.648;8.330;2022-11-11T11:48:21;102045.66;;;7.93;100.00
11525;BME280;5819;49.648;8.330;2022-11-11T11:51:26;102049.13;;;7.85;100.00
11525;BME280;5819;49.648;8.330;2022-11-11T11:54:37;102052.56;;;7.87;100.00
11525;BME280;5819;49.648;8.330;2022-11-11T11:57:38;102050.00;;;7.85;100.00
11525;BME280;5819;49.648;8.330;2022-11-11T12:00:29;102056.91;;;7.80;100.00
11525;BME280;5819;49.648;8.330;2022-11-11T12:03:31;102052.63;;;7.78;100.00
11525;BME280;5819;49.648;8.330;2022-11-11T12:06:30;102050.88;;;7.80;100.00
11525;BME280;5819;49.648;8.330;2022-11-11T12:09:31;102049.09;;;7.86;100.00
11525;BME280;5819;49.648;8.330;2022-11-11T12:12:28;102043.06;;;7.93;100.00
11525;BME280;5819;49.648;8.330;2022-11-11T12:15:26;102046.50;;;7.91;100.00
11525;BME280;5819;49.648;8.330;2022-11-11T12:18:34;102048.22;;;7.92;100.00
11525;BME280;5819;49.648;8.330;2022-11-11T12:21:28;102061.28;;;7.68;100.00
11525;BME280;5819;49.648;8.330;2022-11-11T12:24:30;102057.81;;;7.72;100.00
11525;BME280;5819;49.648;8.330;2022-11-11T12:27:27;102057.75;;;7.90;100.00
11525;BME280;5819;49.648;8.330;2022-11-11T12:30:18;102058.59;;;7.92;100.00
11525;BME280;5819;49.648;8.330;2022-11-11T12:33:47;102051.66;;;7.95;100.00
11525;BME280;5819;49.648;8.330;2022-11-11T12:36:40;102049.06;;;8.02;100.00
11525;BME280;5819;49.648;8.330;2022-11-11T12:42:48;102051.63;;;8.05;100.00
11525;BME280;5819;49.648;8.330;2022-11-11T12:45:41;102050.75;;;8.10;100.00
11525;BME280;5819;49.648;8.330;2022-11-11T12:48:44;102056.81;;;8.09;100.00
11525;BME280;5819;49.648;8.330;2022-11-11T12:51:46;102053.34;;;8.07;100.00
11525;BME280;5819;49.648;8.330;2022-11-11T12:54:47;102056.75;;;8.15;100.00
11525;BME280;5819;49.648;8.330;2022-11-11T12:57:45;102063.69;;;8.12;100.00
11525;BME280;5819;49.648;8.330;2022-11-11T13:00:35;102052.41;;;8.19;100.00
11525;BME280;5819;49.648;8.330;2022-11-11T13:03:37;102059.38;;;8.12;100.00
11525;BME280;5819;49.648;8.330;2022-11-11T13:06:46;102049.81;;;8.22;100.00
11525;BME280;5819;49.648;8.330;2022-11-11T13:09:44;102046.34;;;8.24;100.00
11525;BME280;5819;49.648;8.330;2022-11-11T13:12:39;102050.63;;;8.27;100.00
11525;BME280;5819;49.648;8.330;2022-11-11T13:15:29;102055.00;;;8.29;100.00
11525;BME280;5819;49.648;8.330;2022-11-11T13:18:20;102048.06;;;8.28;100.00
11525;BME280;5819;49.648;8.330;2022-11-11T13:21:12;102040.31;;;8.30;100.00
11525;BME280;5819;49.648;8.330;2022-11-11T13:27:00;102047.25;;;8.22;100.00
11525;BME280;5819;49.648;8.330;2022-11-11T13:30:02;102046.34;;;8.29;100.00
11525;BME280;5819;49.648;8.330;2022-11-11T13:32:52;102040.28;;;8.33;100.00
11525;BME280;5819;49.648;8.330;2022-11-11T13:35:43;102037.66;;;8.36;100.00
11525;BME280;5819;49.648;8.330;2022-11-11T13:38:33;102046.34;;;8.32;100.00
11525;BME280;5819;49.648;8.330;2022-11-11T13:41:25;102043.75;;;8.26;100.00
11525;BME280;5819;49.648;8.330;2022-11-11T13:44:21;102037.72;;;8.25;100.00
11525;BME280;5819;49.648;8.330;2022-11-11T13:47:16;102032.56;;;8.15;100.00
11525;BME280;5819;49.648;8.330;2022-11-11T13:50:06;102028.34;;;7.95;100.00
11525;BME280;5819;49.648;8.330;2022-11-11T13:52:56;102027.41;;;8.07;100.00
11525;BME280;5819;49.648;8.330;2022-11-11T13:55:45;102025.69;;;8.14;100.00
11525;BME280;5819;49.648;8.330;2022-11-11T13:58:33;102023.06;;;8.15;100.00
11525;BME280;5819;49.648;8.330;2022-11-11T14:01:24;102020.53;;;8.06;100.00
11525;BME280;5819;49.648;8.330;2022-11-11T14:04:26;102028.31;;;8.06;100.00
11525;BME280;5819;49.648;8.330;2022-11-11T14:07:51;102030.00;;;8.07;100.00
11525;BME280;5819;49.648;8.330;2022-11-11T14:11:02;102029.19;;;7.99;100.00
11525;BME280;5819;49.648;8.330;2022-11-11T14:13:50;102023.16;;;7.97;100.00
11525;BME280;5819;49.648;8.330;2022-11-11T14:16:59;102022.28;;;8.01;100.00
11525;BME280;5819;49.648;8.330;2022-11-11T14:19:45;102014.50;;;8.06;100.00
11525;BME280;5819;49.648;8.330;2022-11-11T14:22:33;102017.06;;;8.07;100.00
11525;BME280;5819;49.648;8.330;2022-11-11T14:25:21;102028.34;;;8.00;100.00
11525;BME280;5819;49.648;8.330;2022-11-11T14:28:19;102031.84;;;7.84;100.00
11525;BME280;5819;49.648;8.330;2022-11-11T14:31:34;102029.31;;;7.76;100.00
11525;BME280;5819;49.648;8.330;2022-11-11T14:38:02;102023.22;;;7.89;100.00
11525;BME280;5819;49.648;8.330;2022-11-11T14:40:51;102027.47;;;7.95;100.00
11525;BME280;5819;49.648;8.330;2022-11-11T14:43:38;102022.31;;;7.98;100.00
11525;BME280;5819;49.648;8.330;2022-11-11T14:46:25;102031.78;;;8.00;100.00
11525;BME280;5819;49.648;8.330;2022-11-11T14:49:45;102024.88;;;8.01;100.00
11525;BME280;5819;49.648;8.330;2022-11-11T14:52:34;102026.63;;;8.02;100.00
11525;BME280;5819;49.648;8.330;2022-11-11T14:55:26;102027.50;;;7.98;100.00
11525;BME280;5819;49.648;8.330;2022-11-11T14:58:14;102029.22;;;7.97;100.00
11525;BME280;5819;49.648;8.330;2022-11-11T15:01:11;102030.06;;;8.01;100.00
11525;BME280;5819;49.648;8.330;2022-11-11T15:04:01;102024.94;;;7.89;100.00
11525;BME280;5819;49.648;8.330;2022-11-11T15:06:54;102019.78;;;7.86;100.00
11525;BME280;5819;49.648;8.330;2022-11-11T15:13:28;102024.13;;;7.75;100.00
11525;BME280;5819;49.648;8.330;2022-11-11T15:16:28;102021.53;;;7.72;100.00
11525;BME280;5819;49.648;8.330;2022-11-11T15:19:31;102021.53;;;7.78;100.00
11525;BME280;5819;49.648;8.330;2022-11-11T15:22:35;102022.38;;;7.80;100.00
11525;BME280;5819;49.648;8.330;2022-11-11T15:25:33;102016.31;;;7.85;100.00